Time;durP1;ratioP1;P1;durP2;ratioP2;P2;SDS_P1;SDS_P2;PMS_P1;PMS_P2;Temp;Humidity;BMP_temperature;BMP_pressure;BME280_temperature;BME280_humidity;BME280_pressure;Samples;Min_cycle;Max_cycle;Signal;HPM_P1;HPM_P2
2022/04/23 00:01:52;;;;;;;46.98;27.58;;;;;;;3.60;100.00;98083.41;2206336;81;20986;-80
2022/04/23 00:04:54;;;;;;;33.33;20.37;;;;;;;3.48;100.00;98081.55;2206189;81;21032;-80
2022/04/23 00:07:57;;;;;;;36.93;21.77;;;;;;;3.35;100.00;98088.37;2206012;81;21425;-81
2022/04/23 00:11:02;;;;;;;31.23;21.15;;;;;;;3.19;100.00;98090.81;2204291;81;21069;-80
2022/04/23 00:14:08;;;;;;;36.63;25.00;;;;;;;3.03;100.00;98087.62;2205799;81;20938;-76
2022/04/23 00:17:08;;;;;;;38.73;26.57;;;;;;;2.89;100.00;98089.40;2203766;81;21059;-75
2022/04/23 00:20:12;;;;;;;51.20;28.98;;;;;;;2.83;100.00;98093.85;2206598;81;21011;-78
2022/04/23 00:23:13;;;;;;;45.35;23.85;;;;;;;2.76;100.00;98088.95;2206604;79;21012;-80
2022/04/23 00:26:15;;;;;;;40.50;24.35;;;;;;;2.80;100.00;98091.09;2206812;81;21040;-80
2022/04/23 00:29:17;;;;;;;33.75;21.07;;;;;;;2.85;100.00;98085.02;2205322;80;21045;-79
2022/04/23 00:32:19;;;;;;;28.80;18.62;;;;;;;2.85;100.00;98087.59;2204229;79;21085;-80
2022/04/23 00:35:20;;;;;;;25.17;17.95;;;;;;;2.80;100.00;98088.50;2219709;80;21608;-79
2022/04/23 00:38:23;;;;;;;28.87;19.62;;;;;;;2.73;100.00;98082.76;2231312;78;20983;-78
2022/04/23 00:44:45;;;;;;;30.45;19.27;;;;;;;2.55;100.00;98090.47;2232596;80;21132;-80
2022/04/23 00:47:46;;;;;;;22.50;16.70;;;;;;;2.43;100.00;98096.31;2253445;78;22136;-79
2022/04/23 00:50:48;;;;;;;25.88;18.87;;;;;;;2.39;100.00;98083.36;2269913;78;21434;-79
2022/04/23 00:53:50;;;;;;;27.10;16.87;;;;;;;2.38;100.00;98086.06;2270016;78;21037;-79
2022/04/23 00:56:53;;;;;;;24.47;17.75;;;;;;;2.28;100.00;98075.30;2260495;78;20959;-79
2022/04/23 00:59:54;;;;;;;24.35;17.52;;;;;;;2.31;100.00;98072.92;2232283;80;21005;-79
2022/04/23 01:02:56;;;;;;;27.60;18.27;;;;;;;2.30;100.00;98060.16;2232397;80;20936;-79
2022/04/23 01:05:58;;;;;;;27.95;18.50;;;;;;;2.37;100.00;98062.00;2232255;80;20971;-79
2022/04/23 01:09:00;;;;;;;24.25;17.37;;;;;;;2.42;100.00;98064.98;2263097;78;21461;-80
2022/04/23 01:12:02;;;;;;;26.93;19.02;;;;;;;2.46;100.00;98052.09;2269850;78;21024;-79
2022/04/23 01:15:04;;;;;;;28.83;18.05;;;;;;;2.54;100.00;98052.19;2269763;78;20958;-79
2022/04/23 01:18:06;;;;;;;27.42;18.45;;;;;;;2.63;100.00;98047.92;2250745;78;20933;-79
2022/04/23 01:21:10;;;;;;;38.02;22.02;;;;;;;2.71;100.00;98044.61;2232363;80;21490;-80
2022/04/23 01:24:12;;;;;;;31.82;20.12;;;;;;;2.76;100.00;98043.70;2232192;80;21083;-80
2022/04/23 01:27:14;;;;;;;33.95;21.02;;;;;;;2.84;100.00;98039.43;2239864;78;20898;-79
2022/04/23 01:30:16;;;;;;;34.70;22.40;;;;;;;2.90;100.00;98043.19;2269758;78;20925;-80
2022/04/23 01:33:18;;;;;;;35.15;20.60;;;;;;;2.86;100.00;98041.87;2269891;78;21460;-80
2022/04/23 01:36:20;;;;;;;32.98;20.23;;;;;;;2.78;100.00;98043.89;2269607;78;20989;-79
2022/04/23 01:39:21;;;;;;;31.37;18.62;;;;;;;2.78;100.00;98045.66;2266589;78;20984;-80
2022/04/23 01:42:23;;;;;;;32.20;20.37;;;;;;;2.63;100.00;98047.11;2269409;78;21507;-80
2022/04/23 01:45:25;;;;;;;30.43;20.00;;;;;;;2.50;100.00;98050.05;2269704;78;20985;-80
2022/04/23 01:48:27;;;;;;;29.25;18.77;;;;;;;2.49;100.00;98040.20;2240069;78;21440;-81
2022/04/23 01:51:29;;;;;;;27.27;19.62;;;;;;;2.51;100.00;98046.02;2230358;80;20973;-80
2022/04/23 01:54:32;;;;;;;27.27;19.80;;;;;;;2.50;100.00;98041.00;2230343;80;21004;-80
2022/04/23 01:57:33;;;;;;;28.40;20.20;;;;;;;2.48;100.00;98045.52;2231926;78;21435;-81
2022/04/23 02:00:36;;;;;;;29.20;19.20;;;;;;;2.45;100.00;98044.48;2232556;80;21458;-80
2022/04/23 02:03:38;;;;;;;31.62;20.75;;;;;;;2.42;100.00;98039.62;2232389;80;20956;-80
2022/04/23 02:06:40;;;;;;;28.67;19.37;;;;;;;2.47;100.00;98042.56;2237201;78;20922;-79
2022/04/23 02:09:42;;;;;;;28.50;19.25;;;;;;;2.47;100.00;98041.27;2235469;78;20936;-80
2022/04/23 02:12:45;;;;;;;31.23;20.02;;;;;;;2.54;100.00;98047.50;2232444;80;20993;-79
2022/04/23 02:15:47;;;;;;;30.20;20.48;;;;;;;2.60;100.00;98042.23;2232414;80;21040;-80
2022/04/23 02:18:49;;;;;;;29.65;21.02;;;;;;;2.58;100.00;98038.99;2232549;78;20990;-80
2022/04/23 02:21:50;;;;;;;33.80;21.45;;;;;;;2.64;100.00;98043.08;2232530;80;20921;-80
2022/04/23 02:24:52;;;;;;;27.67;20.82;;;;;;;2.72;100.00;98052.22;2232520;80;21463;-80
2022/04/23 02:27:54;;;;;;;30.97;21.75;;;;;;;2.80;100.00;98050.20;2232733;78;20968;-78
2022/04/23 02:30:56;;;;;;;27.00;20.37;;;;;;;2.84;100.00;98054.95;2232505;80;20996;-79
2022/04/23 02:33:58;;;;;;;31.27;20.10;;;;;;;2.89;100.00;98044.14;2232361;80;21058;-79
2022/04/23 02:36:59;;;;;;;38.40;22.85;;;;;;;2.95;100.00;98049.22;2206236;80;21070;-82
2022/04/23 02:40:02;;;;;;;28.35;18.87;;;;;;;2.96;100.00;98054.24;2204245;81;21048;-82
2022/04/23 02:43:03;;;;;;;23.10;16.62;;;;;;;2.91;100.00;98053.05;2204337;81;21006;-80
2022/04/23 02:46:05;;;;;;;38.90;25.12;;;;;;;2.89;100.00;98063.54;2204185;81;21021;-80
2022/04/23 02:49:07;;;;;;;74.53;36.95;;;;;;;2.85;100.00;98064.33;2206196;81;21461;-81
2022/04/23 02:52:09;;;;;;;70.70;33.42;;;;;;;2.88;100.00;98061.11;2206257;81;21552;-80
2022/04/23 02:55:11;;;;;;;51.88;28.60;;;;;;;2.93;100.00;98057.61;2206374;81;21080;-81
2022/04/23 02:58:12;;;;;;;71.70;36.23;;;;;;;3.00;100.00;98061.22;2206083;81;20922;-80
2022/04/23 03:01:14;;;;;;;129.23;48.30;;;;;;;2.91;100.00;98056.92;2204696;81;21005;-80
2022/04/23 03:04:17;;;;;;;125.10;47.08;;;;;;;2.86;100.00;98059.97;2204904;81;21034;-81
2022/04/23 03:07:19;;;;;;;119.72;43.65;;;;;;;2.79;100.00;98053.27;2204854;79;21073;-81
2022/04/23 03:10:21;;;;;;;90.60;34.48;;;;;;;2.83;100.00;98053.77;2204258;81;20990;-80
2022/04/23 03:13:24;;;;;;;181.50;57.43;;;;;;;2.87;100.00;98057.71;2204151;81;21060;-81
2022/04/23 03:16:26;;;;;;;196.65;64.47;;;;;;;2.81;100.00;98055.70;2204217;81;21136;-82
2022/04/23 03:19:28;;;;;;;84.05;35.60;;;;;;;2.81;100.00;98048.75;2204563;81;21037;-81
2022/04/23 03:22:30;;;;;;;121.82;47.78;;;;;;;2.94;100.00;98051.00;2206230;81;21485;-80
2022/04/23 03:25:32;;;;;;;57.73;29.85;;;;;;;3.07;100.00;98061.77;2206201;81;21596;-79
2022/04/23 03:28:35;;;;;;;42.65;25.08;;;;;;;3.13;100.00;98061.67;2206333;81;21040;-80
2022/04/23 03:31:37;;;;;;;47.27;26.27;;;;;;;3.19;100.00;98058.95;2204493;81;21061;-80
2022/04/23 03:34:39;;;;;;;38.70;25.80;;;;;;;3.13;100.00;98060.38;2207320;80;21052;-81
2022/04/23 03:37:40;;;;;;;37.60;23.65;;;;;;;3.04;100.00;98065.96;2221639;80;20925;-80
2022/04/23 03:40:42;;;;;;;28.27;20.43;;;;;;;2.99;100.00;98071.23;2221771;80;20949;-80
2022/04/23 03:43:44;;;;;;;31.73;20.75;;;;;;;2.89;100.00;98068.72;2255678;79;20989;-79
2022/04/23 03:46:46;;;;;;;28.55;21.00;;;;;;;2.85;100.00;98067.39;2259570;79;20924;-79
2022/04/23 03:49:47;;;;;;;34.73;22.73;;;;;;;2.90;100.00;98075.51;2221645;80;21032;-80
2022/04/23 03:52:49;;;;;;;62.03;32.48;;;;;;;2.83;100.00;98073.16;2241641;79;20937;-79
2022/04/23 03:55:51;;;;;;;81.20;38.13;;;;;;;2.73;100.00;98073.70;2265623;79;21583;-81
2022/04/23 03:58:53;;;;;;;59.35;31.27;;;;;;;2.88;100.00;98068.38;2255803;79;20995;-79
2022/04/23 04:01:55;;;;;;;47.98;27.90;;;;;;;3.24;100.00;98070.98;2235779;79;20934;-79
2022/04/23 04:04:57;;;;;;;30.88;19.62;;;;;;;3.47;100.00;98070.83;2221977;80;21063;-80
2022/04/23 04:07:59;;;;;;;33.80;20.82;;;;;;;3.52;100.00;98071.69;2221699;80;20999;-80
2022/04/23 04:11:00;;;;;;;25.82;18.77;;;;;;;3.56;100.00;98076.41;2224071;79;20921;-79
2022/04/23 04:14:02;;;;;;;35.65;22.50;;;;;;;3.67;100.00;98076.19;2225158;79;20965;-80
2022/04/23 04:17:04;;;;;;;39.45;23.38;;;;;;;3.65;100.00;98076.80;2265511;79;21021;-79
2022/04/23 04:20:06;;;;;;;45.52;25.62;;;;;;;3.68;100.00;98066.64;2261409;79;21021;-81
2022/04/23 04:23:08;;;;;;;42.65;25.48;;;;;;;3.57;100.00;98073.36;2221600;80;20940;-79
2022/04/23 04:26:10;;;;;;;43.98;24.82;;;;;;;3.65;100.00;98074.69;2221628;80;20971;-81
2022/04/23 04:29:11;;;;;;;47.43;26.35;;;;;;;3.68;100.00;98079.59;2221641;80;21065;-81
2022/04/23 04:32:13;;;;;;;35.33;22.65;;;;;;;3.64;100.00;98080.83;2221744;79;20994;-81
2022/04/23 04:35:15;;;;;;;32.93;22.25;;;;;;;3.75;100.00;98076.73;2218076;79;21040;-79
2022/04/23 04:38:17;;;;;;;42.65;26.75;;;;;;;4.15;100.00;98076.62;2206154;81;21069;-81
2022/04/23 04:41:19;;;;;;;37.55;25.00;;;;;;;4.72;100.00;98070.38;2205455;81;21470;-84
2022/04/23 04:44:20;;;;;;;37.15;24.15;;;;;;;5.32;100.00;98067.56;2204092;81;21021;-83
2022/04/23 04:47:22;;;;;;;33.30;21.68;;;;;;;5.81;100.00;98070.13;2204191;81;21021;-83
2022/04/23 04:50:24;;;;;;;25.60;19.50;;;;;;;6.38;100.00;98066.91;2204191;81;21001;-81
2022/04/23 04:53:26;;;;;;;25.08;17.73;;;;;;;6.76;100.00;98069.17;2206197;81;20962;-81
2022/04/23 04:56:27;;;;;;;30.25;20.92;;;;;;;7.18;100.00;98065.36;2206132;81;21044;-81
2022/04/23 04:59:31;;;;;;;27.70;20.37;;;;;;;7.51;100.00;98073.75;2206163;81;20997;-80
2022/04/23 05:02:33;;;;;;;34.63;22.73;;;;;;;7.74;100.00;98068.98;2204930;81;20958;-80
2022/04/23 05:05:35;;;;;;;30.92;20.85;;;;;;;7.89;99.44;98061.51;2204169;81;21017;-79
2022/04/23 05:08:36;;;;;;;32.58;22.37;;;;;;;8.23;99.50;98061.49;2204223;79;20997;-79
2022/04/23 05:11:38;;;;;;;28.60;20.52;;;;;;;8.35;96.97;98060.56;2205084;81;21422;-78
2022/04/23 05:14:40;;;;;;;33.00;21.25;;;;;;;8.53;95.87;98061.00;2206137;81;21046;-82
2022/04/23 05:17:41;;;;;;;27.30;19.52;;;;;;;8.73;94.74;98063.34;2206381;81;21525;-80
2022/04/23 05:20:43;;;;;;;32.50;20.32;;;;;;;8.94;94.51;98063.86;2206279;81;21058;-81
2022/04/23 05:23:45;;;;;;;25.68;18.15;;;;;;;9.13;91.98;98061.95;2204422;81;21040;-86
2022/04/23 05:26:46;;;;;;;25.68;18.05;;;;;;;9.35;92.02;98063.28;2205215;81;20970;-83
2022/04/23 05:29:48;;;;;;;26.55;18.73;;;;;;;9.56;92.54;98063.75;2204679;81;21500;-84
2022/04/23 05:32:50;;;;;;;21.65;16.62;;;;;;;9.81;90.49;98065.47;2205945;81;21494;-81
2022/04/23 05:35:51;;;;;;;26.65;19.75;;;;;;;10.07;90.21;98064.84;2211524;79;21599;-81
2022/04/23 05:38:53;;;;;;;21.45;16.93;;;;;;;10.31;88.42;98071.44;2221987;80;20967;-81
2022/04/23 05:41:55;;;;;;;18.23;14.78;;;;;;;10.55;86.67;98073.58;2240811;79;20988;-86
2022/04/23 05:44:57;;;;;;;21.60;15.63;;;;;;;10.70;84.24;98068.22;2266066;79;21024;-82
2022/04/23 05:47:58;;;;;;;21.68;16.25;;;;;;;10.73;83.08;98070.44;2265827;78;21049;-84
2022/04/23 05:51:00;;;;;;;24.95;16.70;;;;;;;10.72;82.04;98068.32;2260782;78;20984;-87
2022/04/23 05:54:02;;;;;;;23.80;16.77;;;;;;;10.79;82.79;98069.16;2223413;79;21027;-84
2022/04/23 05:57:03;;;;;;;20.77;16.50;;;;;;;10.91;81.54;98066.77;2249468;79;20948;-83
2022/04/23 06:00:05;;;;;;;19.85;15.48;;;;;;;10.91;80.36;98068.08;2265854;78;21013;-87
2022/04/23 06:03:07;;;;;;;25.80;16.32;;;;;;;10.94;79.86;98062.44;2246157;79;20964;-84
2022/04/23 06:06:09;;;;;;;18.52;15.23;;;;;;;10.86;80.10;98069.66;2266256;78;20999;-85
2022/04/23 06:09:12;;;;;;;17.23;14.63;;;;;;;10.73;78.87;98065.20;2266015;79;21013;-84
2022/04/23 06:12:14;;;;;;;19.70;14.43;;;;;;;10.86;79.31;98074.40;2234612;78;21121;-82
2022/04/23 06:15:16;;;;;;;15.78;13.83;;;;;;;11.00;78.45;98069.52;2228760;79;21052;-84
2022/04/23 06:18:17;;;;;;;15.85;12.70;;;;;;;11.10;77.99;98072.56;2258461;79;21037;-83
2022/04/23 06:21:19;;;;;;;12.78;11.45;;;;;;;11.20;76.89;98075.30;2221874;79;20997;-82
2022/04/23 06:24:21;;;;;;;15.32;12.75;;;;;;;11.31;76.45;98067.66;2222436;79;21019;-83
2022/04/23 06:27:22;;;;;;;16.02;14.23;;;;;;;11.31;76.45;98067.66;2229947;79;21009;-82
2022/04/23 06:30:24;;;;;;;14.50;12.65;;;;;;;11.25;76.27;98065.05;2259521;79;21498;-81
2022/04/23 06:33:26;;;;;;;13.93;11.85;;;;;;;11.23;74.60;98065.72;2222792;79;21428;-82
2022/04/23 06:36:28;;;;;;;14.47;11.75;;;;;;;11.18;74.78;98067.64;2221726;80;21528;-85
2022/04/23 06:39:30;;;;;;;14.98;12.20;;;;;;;11.22;75.53;98058.88;2245566;79;20997;-88
2022/04/23 06:42:31;;;;;;;12.47;10.58;;;;;;;11.25;75.04;98057.98;2266096;78;21024;-86
2022/04/23 06:45:33;;;;;;;13.85;11.65;;;;;;;11.28;73.25;98045.78;2265579;78;21100;-86
2022/04/23 06:48:35;;;;;;;14.68;11.48;;;;;;;11.28;73.25;98045.78;2252620;78;20976;-85
2022/04/23 06:51:37;;;;;;;14.80;11.73;;;;;;;11.44;73.58;98035.42;2239770;79;20963;-87
2022/04/23 06:54:39;;;;;;;13.53;10.72;;;;;;;11.44;73.58;98035.42;2223927;79;21028;-85
2022/04/23 06:57:41;;;;;;;12.80;10.82;;;;;;;11.58;73.77;98037.02;2232378;79;20981;-84
2022/04/23 07:00:42;;;;;;;13.62;10.32;;;;;;;11.59;73.08;98032.58;2263105;78;21001;-84
2022/04/23 07:03:44;;;;;;;11.33;9.78;;;;;;;11.72;70.63;98044.91;2257746;78;20988;-84
2022/04/23 07:06:46;;;;;;;11.45;10.25;;;;;;;11.69;71.68;98031.16;2228744;79;21044;-83
2022/04/23 07:09:47;;;;;;;10.78;9.68;;;;;;;11.69;72.29;98033.78;2221219;80;21591;-84
2022/04/23 07:12:49;;;;;;;10.85;9.75;;;;;;;11.83;71.81;98029.38;2221789;79;21539;-83
2022/04/23 07:15:51;;;;;;;11.00;8.83;;;;;;;11.96;71.76;98031.16;2220251;79;21025;-83
2022/04/23 07:18:53;;;;;;;9.65;8.65;;;;;;;12.04;71.12;98037.51;2219666;80;21033;-84
2022/04/23 07:21:55;;;;;;;9.55;8.68;;;;;;;12.01;70.50;98030.56;2220426;79;21085;-83
2022/04/23 07:24:57;;;;;;;13.15;9.15;;;;;;;12.02;70.63;98025.11;2219993;80;21037;-88
2022/04/23 07:27:58;;;;;;;8.88;8.05;;;;;;;12.17;70.56;98029.63;2256542;79;20986;-82
2022/04/23 07:31:00;;;;;;;10.32;9.33;;;;;;;12.25;68.08;98027.26;2265602;79;21018;-89
2022/04/23 07:37:31;;;;;;;8.75;7.83;;;;;;;12.21;66.74;98014.26;2221843;79;21066;-87
2022/04/23 07:40:33;;;;;;;9.38;8.48;;;;;;;12.23;68.51;98010.91;2204359;81;21521;-89
2022/04/23 07:43:34;;;;;;;9.28;8.38;;;;;;;12.30;68.56;98016.95;2204399;81;20938;-89
2022/04/23 07:46:37;;;;;;;10.03;8.55;;;;;;;12.38;67.71;98011.98;2204566;81;21009;-86
2022/04/23 07:49:39;;;;;;;9.78;8.78;;;;;;;12.41;67.39;98002.38;2204184;81;21081;-84
2022/04/23 07:52:41;;;;;;;11.05;9.73;;;;;;;12.43;66.54;98001.66;2205112;81;21021;-85
2022/04/23 07:55:43;;;;;;;12.20;10.25;;;;;;;12.47;66.80;97997.11;2205398;81;21048;-85
2022/04/23 07:58:44;;;;;;;9.68;8.60;;;;;;;12.58;66.72;98000.89;2204361;81;21029;-85
2022/04/23 08:01:46;;;;;;;10.20;9.15;;;;;;;12.53;64.28;98007.29;2204217;81;21565;-84
2022/04/23 08:04:48;;;;;;;11.15;9.15;;;;;;;12.56;64.98;97997.67;2204238;81;21058;-85
2022/04/23 08:07:49;;;;;;;10.58;8.45;;;;;;;12.77;64.42;98003.92;2205020;81;21049;-86
2022/04/23 08:10:51;;;;;;;10.55;9.40;;;;;;;13.01;63.70;97991.86;2206446;81;21042;-84
2022/04/23 08:13:53;;;;;;;11.48;10.18;;;;;;;13.19;62.72;97995.11;2205476;81;21029;-85
2022/04/23 08:16:56;;;;;;;10.28;9.28;;;;;;;13.24;62.77;97986.05;2206158;81;21038;-86
2022/04/23 08:19:57;;;;;;;8.95;8.10;;;;;;;13.60;62.11;97991.13;2206177;79;21520;-86
2022/04/23 08:22:59;;;;;;;8.78;7.97;;;;;;;13.80;59.85;97994.88;2205336;81;21489;-86
2022/04/23 08:26:01;;;;;;;10.25;9.25;;;;;;;13.60;60.78;97979.29;2204031;81;21144;-85
2022/04/23 08:32:23;;;;;;;8.30;7.47;;;;;;;13.74;60.26;97982.10;2207025;81;20978;-83
2022/04/23 08:35:25;;;;;;;7.37;6.75;;;;;;;13.88;58.53;97992.77;2204016;81;21545;-84
2022/04/23 08:38:27;;;;;;;7.00;6.37;;;;;;;13.94;60.00;97989.80;2222839;80;21552;-84
2022/04/23 08:41:29;;;;;;;8.73;7.83;;;;;;;13.94;59.14;97986.65;2223996;80;21004;-83
2022/04/23 08:44:31;;;;;;;7.62;6.92;;;;;;;13.88;59.77;97989.34;2224662;80;21041;-84
2022/04/23 08:47:33;;;;;;;7.92;7.20;;;;;;;13.82;58.09;97994.17;2225349;80;21076;-84
2022/04/23 08:50:38;;;;;;;7.50;6.85;;;;;;;13.65;58.23;97989.47;2225989;80;21040;-85
2022/04/23 08:53:40;;;;;;;8.80;8.00;;;;;;;13.54;58.75;97979.66;2225393;80;20957;-85
2022/04/23 08:56:41;;;;;;;9.00;8.13;;;;;;;13.60;59.53;97980.61;2225539;80;21027;-85
2022/04/23 08:59:44;;;;;;;10.82;8.50;;;;;;;13.76;59.46;97988.46;2225380;79;21009;-84
2022/04/23 09:02:46;;;;;;;10.05;9.05;;;;;;;13.80;59.00;97983.84;2226065;79;21068;-84
2022/04/23 09:05:48;;;;;;;10.55;8.33;;;;;;;13.78;59.21;97978.52;2226023;80;20987;-87
2022/04/23 09:08:50;;;;;;;10.70;9.23;;;;;;;13.94;58.65;97984.53;2225451;80;21425;-84
2022/04/23 09:11:51;;;;;;;8.20;7.40;;;;;;;14.04;59.60;97978.77;2225518;80;21064;-85
2022/04/23 09:14:53;;;;;;;8.58;7.78;;;;;;;14.18;58.56;97972.34;2225148;79;21061;-84
2022/04/23 09:24:36;;;;;;;7.83;7.12;;;;;;;13.99;56.74;97979.91;2223668;80;21620;-85
2022/04/23 09:27:37;;;;;;;7.72;7.10;;;;;;;13.80;57.65;97977.78;2224596;80;20961;-88
2022/04/23 09:30:39;;;;;;;8.65;7.85;;;;;;;13.90;57.89;97974.97;2224032;80;21024;-89
2022/04/23 09:33:41;;;;;;;8.23;7.42;;;;;;;13.99;58.27;97973.33;2223990;80;21061;-87
2022/04/23 09:36:43;;;;;;;8.38;7.60;;;;;;;14.12;57.62;97975.33;2223608;79;21483;-88
2022/04/23 09:39:44;;;;;;;11.43;10.32;;;;;;;14.17;57.87;97964.95;2221992;79;20992;-86
2022/04/23 09:42:46;;;;;;;9.85;8.95;;;;;;;14.21;58.17;97970.56;2221756;80;21009;-84
2022/04/23 09:45:48;;;;;;;8.35;7.55;;;;;;;14.32;57.92;97965.87;2222029;80;21060;-82
2022/04/23 09:48:50;;;;;;;8.85;7.90;;;;;;;14.38;56.23;97979.48;2228328;79;20977;-86
2022/04/23 09:51:52;;;;;;;9.38;7.25;;;;;;;14.27;56.19;97964.43;2222264;79;21004;-85
2022/04/23 09:54:53;;;;;;;7.92;7.15;;;;;;;14.19;56.75;97965.53;2222596;80;20969;-85
2022/04/23 09:57:57;;;;;;;8.83;8.10;;;;;;;14.19;57.43;97966.05;2222138;80;21001;-86
2022/04/23 10:00:59;;;;;;;9.08;8.18;;;;;;;14.35;57.64;97960.66;2222001;79;21556;-86
2022/04/23 10:04:01;;;;;;;8.95;8.15;;;;;;;14.51;57.21;97955.63;2222429;80;20991;-84
2022/04/23 10:07:03;;;;;;;9.15;8.38;;;;;;;14.64;56.88;97956.50;2223228;80;21019;-87
2022/04/23 10:10:04;;;;;;;10.08;9.08;;;;;;;14.84;55.84;97959.65;2222558;79;20960;-86
2022/04/23 10:13:06;;;;;;;9.23;8.35;;;;;;;14.84;55.84;97972.03;2220374;80;20973;-84
2022/04/23 10:16:10;;;;;;;11.08;10.08;;;;;;;14.67;56.02;97963.95;2222597;79;20885;-81
2022/04/23 10:19:11;;;;;;;10.00;9.08;;;;;;;14.67;56.08;97967.89;2224149;79;21432;-84
2022/04/23 10:22:14;;;;;;;8.13;7.42;;;;;;;14.74;56.23;97972.05;2262145;79;21053;-86
2022/04/23 10:25:17;;;;;;;6.92;6.22;;;;;;;14.87;56.59;97979.47;2265834;78;21540;-84
2022/04/23 10:28:19;;;;;;;7.67;6.97;;;;;;;14.71;54.39;97983.53;2266108;79;21005;-86
2022/04/23 10:31:21;;;;;;;6.60;6.00;;;;;;;14.59;55.74;97978.23;2230855;78;21256;-85
2022/04/23 10:34:22;;;;;;;8.48;7.58;;;;;;;14.59;55.77;97971.64;2212747;80;20935;-83
2022/04/23 10:37:24;;;;;;;7.78;6.97;;;;;;;14.61;56.02;97970.90;2219660;80;21014;-84
2022/04/23 10:40:26;;;;;;;8.05;7.22;;;;;;;14.52;55.60;97980.13;2228393;80;20921;-82
2022/04/23 10:43:28;;;;;;;6.78;6.17;;;;;;;14.57;56.74;97968.43;2217629;80;20983;-86
2022/04/23 10:46:30;;;;;;;7.08;6.47;;;;;;;14.79;56.23;97972.69;2198401;80;20986;-88
2022/04/23 10:49:32;;;;;;;6.35;5.85;;;;;;;14.99;56.25;97975.83;2190206;81;21035;-85
2022/04/23 10:52:34;;;;;;;8.05;6.17;;;;;;;14.88;54.40;97979.24;2203504;80;21484;-87
2022/04/23 10:55:35;;;;;;;5.53;5.03;;;;;;;14.95;55.15;97977.33;2199323;80;21488;-85
2022/04/23 10:58:43;;;;;;;5.90;5.30;;;;;;;15.06;54.22;97983.65;2199216;80;21467;-84
2022/04/23 11:01:45;;;;;;;5.50;5.10;;;;;;;15.08;54.25;97969.20;2192236;81;21284;-84
2022/04/23 11:12:14;;;;;;;5.42;4.97;;;;;;;15.04;54.88;97966.75;2195030;80;20998;-85
2022/04/23 11:14:30;;;;;;;5.15;4.75;;;;;;;15.08;52.56;97972.36;2203349;80;20967;-85
2022/04/23 11:17:32;;;;;;;5.87;5.35;;;;;;;15.13;52.06;97974.33;2216577;80;21463;-84
2022/04/23 11:20:34;;;;;;;4.80;4.40;;;;;;;15.17;52.51;97974.16;2225982;80;20968;-86
2022/04/23 11:23:37;;;;;;;5.35;4.95;;;;;;;15.24;52.20;97977.50;2221641;80;21309;-83
2022/04/23 11:26:39;;;;;;;5.25;4.75;;;;;;;15.41;52.28;97975.80;2224040;80;21563;-85
2022/04/23 11:29:40;;;;;;;4.65;4.25;;;;;;;15.49;52.47;97985.22;2221791;80;20923;-84
2022/04/23 11:32:42;;;;;;;6.80;5.30;;;;;;;15.27;50.17;97981.82;2205612;80;21473;-84
2022/04/23 11:35:44;;;;;;;4.47;4.17;;;;;;;15.28;51.59;97964.97;2218376;79;20996;-84
2022/04/23 11:38:46;;;;;;;4.15;3.85;;;;;;;15.30;50.26;97988.47;2197267;80;21041;-83
2022/04/23 11:41:47;;;;;;;3.98;3.67;;;;;;;15.24;50.49;97975.66;2194027;81;20989;-84
2022/04/23 11:44:50;;;;;;;5.10;4.70;;;;;;;15.13;49.77;97976.97;2203397;81;21095;-84
2022/04/23 11:47:52;;;;;;;4.03;3.62;;;;;;;14.94;50.64;97979.67;2169434;82;21541;-84
2022/04/23 11:50:55;;;;;;;3.50;3.30;;;;;;;15.03;50.63;97973.56;2195573;81;21588;-83
2022/04/23 11:54:00;;;;;;;5.00;4.17;;;;;;;15.15;50.08;97959.88;2184426;81;21064;-84
2022/04/23 11:57:02;;;;;;;5.22;4.72;;;;;;;15.14;50.14;97968.83;2168138;82;21077;-83
2022/04/23 12:00:03;;;;;;;4.55;4.25;;;;;;;14.93;49.99;97982.54;2179456;81;21036;-83
2022/04/23 12:03:06;;;;;;;4.22;3.58;;;;;;;14.88;50.96;97991.11;2179890;81;21052;-82
2022/04/23 12:06:09;;;;;;;3.37;3.05;;;;;;;14.78;52.06;97982.42;2200519;81;21053;-83
2022/04/23 12:09:11;;;;;;;3.33;3.05;;;;;;;14.89;51.67;97998.50;2206383;81;20938;-84
2022/04/23 12:12:13;;;;;;;3.72;3.42;;;;;;;14.97;51.84;97991.59;2206441;81;21608;-84
2022/04/23 12:15:14;;;;;;;3.20;3.00;;;;;;;15.00;50.78;97997.23;2183607;81;20953;-84
2022/04/23 12:18:19;;;;;;;3.47;3.27;;;;;;;14.95;50.75;97995.77;2189840;81;21461;-82
2022/04/23 12:21:19;;;;;;;3.10;2.90;;;;;;;14.95;48.88;98018.18;2206543;80;21012;-83
2022/04/23 12:24:21;;;;;;;3.20;3.00;;;;;;;14.88;48.50;98006.11;2199371;81;21137;-84
2022/04/23 12:27:23;;;;;;;3.47;3.17;;;;;;;14.75;49.36;98013.19;2207224;81;21587;-83
2022/04/23 12:43:45;;;;;;;3.77;3.58;;;;;;;14.57;48.42;98027.70;2152494;81;21032;-84
2022/04/23 12:46:46;;;;;;;3.52;3.30;;;;;;;14.63;48.43;98011.02;2154617;81;21000;-83
2022/04/23 12:49:48;;;;;;;4.30;4.00;;;;;;;14.73;47.55;98004.70;2152259;83;20976;-82
2022/04/23 12:52:50;;;;;;;3.83;3.52;;;;;;;14.75;46.80;98022.92;2078820;84;21015;-84
2022/04/23 12:55:52;;;;;;;5.17;4.78;;;;;;;14.63;46.09;98043.12;2109188;84;21020;-82
2022/04/23 12:58:54;;;;;;;4.33;3.02;;;;;;;14.60;46.28;98017.23;2111066;83;21528;-85
2022/04/23 13:01:55;;;;;;;3.45;3.25;;;;;;;14.61;46.38;98022.78;2116101;83;21089;-84
2022/04/23 13:04:57;;;;;;;3.58;3.33;;;;;;;14.77;46.17;98027.45;2109352;84;21073;-84
2022/04/23 13:11:28;;;;;;;4.20;3.90;;;;;;;14.80;47.23;98013.30;2143083;83;21076;-84
2022/04/23 13:14:30;;;;;;;3.90;3.60;;;;;;;14.74;46.73;98008.14;2074690;84;20937;-83
2022/04/23 13:17:32;;;;;;;3.25;3.05;;;;;;;14.70;46.20;98010.39;2108803;84;21060;-84
2022/04/23 13:20:34;;;;;;;5.53;4.17;;;;;;;14.61;45.55;98020.95;2118342;83;21080;-83
2022/04/23 13:23:35;;;;;;;3.87;3.58;;;;;;;14.49;46.45;98001.15;2133699;83;20990;-84
2022/04/23 13:26:37;;;;;;;5.10;4.70;;;;;;;14.33;47.30;97992.49;2131168;83;21107;-84
2022/04/23 13:29:39;;;;;;;7.67;6.90;;;;;;;14.20;47.62;97987.39;2121950;83;21037;-85
2022/04/23 13:32:42;;;;;;;6.92;6.30;;;;;;;14.13;47.78;97989.29;2108916;84;22188;-83
2022/04/23 13:35:44;;;;;;;4.85;4.45;;;;;;;14.16;48.17;97990.16;2132787;83;21018;-83
2022/04/23 13:38:46;;;;;;;4.62;4.30;;;;;;;14.33;48.20;97987.73;2156740;81;21077;-84
2022/04/23 13:41:49;;;;;;;10.32;7.30;;;;;;;14.47;46.95;97987.40;2163860;82;21026;-83
2022/04/23 13:44:50;;;;;;;8.98;7.28;;;;;;;14.54;46.21;97991.77;2152000;82;21057;-84
2022/04/23 13:47:52;;;;;;;5.85;4.87;;;;;;;14.62;47.05;97981.72;2120640;83;21007;-84
2022/04/23 13:50:54;;;;;;;4.47;4.08;;;;;;;14.70;46.95;97978.78;2136777;82;21467;-84
2022/04/23 13:53:56;;;;;;;9.05;5.70;;;;;;;14.83;47.56;97964.64;2151371;82;21546;-83
2022/04/23 13:57:00;;;;;;;5.33;4.87;;;;;;;14.79;46.31;97960.83;2108899;84;21088;-84
2022/04/23 14:00:02;;;;;;;5.62;5.17;;;;;;;14.67;46.78;97961.31;2122709;83;21296;-85
2022/04/23 14:10:04;;;;;;;4.78;4.47;;;;;;;14.57;46.21;97964.48;2136364;82;21511;-85
2022/04/23 14:10:04;;;;;;;5.40;4.67;;;;;;;14.60;47.01;97954.80;2136958;83;20978;-86
2022/04/23 14:13:05;;;;;;;4.65;4.35;;;;;;;14.71;47.17;97950.08;2140194;83;21488;-88
2022/04/23 14:16:09;;;;;;;5.60;5.20;;;;;;;14.86;47.39;97947.56;2135490;83;21225;-86
2022/04/23 14:19:10;;;;;;;5.03;4.62;;;;;;;15.00;47.06;97946.34;2132216;82;21084;-86
2022/04/23 14:22:12;;;;;;;8.18;7.37;;;;;;;15.04;47.26;97948.29;2137545;83;21066;-91
2022/04/23 14:25:14;;;;;;;6.22;5.62;;;;;;;15.10;46.67;97945.28;2125109;84;20970;-86
2022/04/23 14:28:16;;;;;;;4.78;4.47;;;;;;;15.07;46.89;97947.83;2125329;84;21025;-86
2022/04/23 14:31:17;;;;;;;5.65;5.20;;;;;;;15.02;46.95;97949.55;2131086;83;21097;-85
2022/04/23 14:34:19;;;;;;;6.00;5.30;;;;;;;15.05;46.82;97951.73;2166576;82;21530;-86
2022/04/23 14:37:20;;;;;;;6.62;6.03;;;;;;;15.11;46.68;97945.56;2160340;81;22052;-86
2022/04/23 14:40:22;;;;;;;5.80;5.30;;;;;;;15.18;46.97;97944.12;2139714;82;20965;-86
2022/04/23 14:43:26;;;;;;;5.70;5.05;;;;;;;15.27;46.90;97936.98;2142742;82;21024;-85
2022/04/23 14:46:28;;;;;;;5.80;5.30;;;;;;;15.42;46.95;97943.12;2160412;82;21479;-86
2022/04/23 14:49:29;;;;;;;5.42;5.03;;;;;;;15.54;45.96;97937.31;2156584;82;20991;-87